createdAt,value
2023-12-30T00:01:49.241Z,9.70
2023-12-30T00:04:16.514Z,9.70
2023-12-30T00:06:44.796Z,9.60
2023-12-30T00:09:11.838Z,9.70
2023-12-30T00:11:39.934Z,9.70
2023-12-30T00:14:10.083Z,9.60
2023-12-30T00:16:38.014Z,9.70
2023-12-30T00:19:08.238Z,9.60
2023-12-30T00:21:37.321Z,9.60
2023-12-30T00:24:05.179Z,9.60
2023-12-30T00:26:38.357Z,9.60
2023-12-30T00:29:05.816Z,9.60
2023-12-30T00:31:34.102Z,9.70
2023-12-30T00:34:04.485Z,9.60
2023-12-30T00:36:34.686Z,9.60
2023-12-30T00:39:02.739Z,9.60
2023-12-30T00:41:32.867Z,9.60
2023-12-30T00:44:03.037Z,9.60
2023-12-30T00:46:31.190Z,9.60
2023-12-30T00:49:01.656Z,9.60
2023-12-30T00:51:29.908Z,9.60
2023-12-30T00:53:57.905Z,9.60
2023-12-30T00:56:28.197Z,9.70
2023-12-30T00:58:58.757Z,9.70
2023-12-30T01:01:26.804Z,9.70
2023-12-30T01:03:54.013Z,9.70
2023-12-30T01:06:27.156Z,9.70
2023-12-30T01:08:55.180Z,9.70
2023-12-30T01:11:25.344Z,9.70
2023-12-30T01:13:55.629Z,9.70
2023-12-30T01:16:25.762Z,9.70
2023-12-30T01:19:02.161Z,9.70
2023-12-30T01:21:29.304Z,9.80
2023-12-30T01:23:59.371Z,9.70
2023-12-30T01:26:27.431Z,9.80
2023-12-30T01:28:57.492Z,9.70
2023-12-30T01:31:24.721Z,9.70
2023-12-30T01:33:53.932Z,9.70
2023-12-30T01:36:21.022Z,9.70
2023-12-30T01:38:51.579Z,9.70
2023-12-30T01:41:22.770Z,9.60
2023-12-30T01:43:49.908Z,9.70
2023-12-30T01:46:18.243Z,9.70
2023-12-30T01:48:46.631Z,9.60
2023-12-30T01:51:24.587Z,9.70
2023-12-30T01:53:58.518Z,9.60
2023-12-30T01:56:29.224Z,9.60
2023-12-30T01:58:57.367Z,9.60
2023-12-30T02:01:31.943Z,9.60
2023-12-30T02:04:01.151Z,9.50
2023-12-30T02:06:28.396Z,9.50
2023-12-30T02:08:58.573Z,9.50
2023-12-30T02:11:26.814Z,9.50
2023-12-30T02:13:54.924Z,9.60
2023-12-30T02:16:25.211Z,9.50
2023-12-30T02:18:52.605Z,9.60
2023-12-30T02:21:25.715Z,9.60
2023-12-30T02:23:55.887Z,9.50
2023-12-30T02:26:23.685Z,9.60
2023-12-30T02:28:53.766Z,9.60
2023-12-30T02:31:23.905Z,9.60
2023-12-30T02:33:54.126Z,9.50
2023-12-30T02:36:24.344Z,9.60
2023-12-30T02:38:54.413Z,9.60
2023-12-30T02:41:24.603Z,9.60
2023-12-30T02:43:59.767Z,9.50
2023-12-30T02:46:26.912Z,9.60
2023-12-30T02:48:54.309Z,9.60
2023-12-30T02:51:23.478Z,9.50
2023-12-30T02:53:53.580Z,9.50
2023-12-30T02:56:26.695Z,9.50
2023-12-30T02:59:02.143Z,9.50
2023-12-30T03:01:51.302Z,9.50
2023-12-30T03:04:24.309Z,9.60
2023-12-30T03:06:53.424Z,9.50
2023-12-30T03:09:24.834Z,9.50
2023-12-30T03:11:54.878Z,9.50
2023-12-30T03:14:24.982Z,9.50
2023-12-30T03:16:55.457Z,9.50
2023-12-30T03:19:22.484Z,9.50
2023-12-30T03:21:56.715Z,9.50
2023-12-30T03:24:24.802Z,9.50
2023-12-30T03:26:51.911Z,9.50
2023-12-30T03:29:22.053Z,9.50
2023-12-30T03:31:53.639Z,9.40
2023-12-30T03:34:21.953Z,9.40
2023-12-30T03:36:50.110Z,9.40
2023-12-30T03:39:20.251Z,9.40
2023-12-30T03:41:54.545Z,9.40
2023-12-30T03:44:23.549Z,9.40
2023-12-30T03:46:53.732Z,9.40
2023-12-30T03:49:22.005Z,9.40
2023-12-30T03:51:49.230Z,9.40
2023-12-30T03:54:16.383Z,9.40
2023-12-30T03:56:44.593Z,9.30
2023-12-30T03:59:14.881Z,9.30
2023-12-30T04:01:46.047Z,9.20
2023-12-30T04:04:14.468Z,9.30
2023-12-30T04:06:45.080Z,9.20
2023-12-30T04:09:15.177Z,9.30
2023-12-30T04:11:42.433Z,9.30
2023-12-30T04:14:09.539Z,9.30
2023-12-30T04:16:39.855Z,9.30
2023-12-30T04:19:08.091Z,9.30
2023-12-30T04:21:38.872Z,9.20
2023-12-30T04:24:09.028Z,9.20
2023-12-30T04:26:39.307Z,9.20
2023-12-30T04:29:09.581Z,9.20
2023-12-30T04:31:36.655Z,9.10
2023-12-30T04:34:06.999Z,9.10
2023-12-30T04:36:36.664Z,9.10
2023-12-30T04:39:04.734Z,9.00
2023-12-30T04:41:31.850Z,9.10
2023-12-30T04:44:02.001Z,9.10
2023-12-30T04:46:30.096Z,9.10
2023-12-30T04:49:02.729Z,9.10
2023-12-30T04:51:31.851Z,9.10
2023-12-30T04:54:00.957Z,9.10
2023-12-30T04:56:29.954Z,9.10
2023-12-30T04:58:57.597Z,9.10
2023-12-30T05:01:27.839Z,9.10
2023-12-30T05:03:58.052Z,9.00
2023-12-30T05:06:26.009Z,9.00
2023-12-30T05:08:54.456Z,8.90
2023-12-30T05:11:21.690Z,8.80
2023-12-30T05:13:49.446Z,8.70
2023-12-30T05:16:17.006Z,8.70
2023-12-30T05:18:47.291Z,8.60
2023-12-30T05:21:19.068Z,8.50
2023-12-30T05:23:49.194Z,8.50
2023-12-30T05:26:17.273Z,8.40
2023-12-30T05:28:47.456Z,8.30
2023-12-30T05:31:14.572Z,8.20
2023-12-30T05:33:44.735Z,8.20
2023-12-30T05:36:11.813Z,8.10
2023-12-30T05:38:39.867Z,8.10
2023-12-30T05:41:06.952Z,8.10
2023-12-30T05:43:37.097Z,8.00
2023-12-30T05:46:17.239Z,8.00
2023-12-30T05:48:46.407Z,8.00
2023-12-30T05:51:16.550Z,8.00
2023-12-30T05:53:45.645Z,8.00
2023-12-30T05:56:22.996Z,8.00
2023-12-30T05:58:56.451Z,8.00
2023-12-30T06:01:25.901Z,8.00
2023-12-30T06:03:54.412Z,8.00
2023-12-30T06:06:21.758Z,8.00
2023-12-30T06:08:51.952Z,8.00
2023-12-30T06:11:21.035Z,8.00
2023-12-30T06:13:48.103Z,8.00
2023-12-30T06:16:15.190Z,8.00
2023-12-30T06:18:42.374Z,8.10
2023-12-30T06:21:12.561Z,8.10
2023-12-30T06:23:40.601Z,8.10
2023-12-30T06:26:10.688Z,8.10
2023-12-30T06:28:37.793Z,8.10
2023-12-30T06:31:05.145Z,8.10
2023-12-30T06:33:32.435Z,8.10
2023-12-30T06:36:01.554Z,8.20
2023-12-30T06:38:28.657Z,8.20
2023-12-30T06:40:56.689Z,8.20
2023-12-30T06:43:26.762Z,8.10
2023-12-30T06:45:57.054Z,8.10
2023-12-30T06:48:24.414Z,8.10
2023-12-30T06:50:52.463Z,8.10
2023-12-30T06:53:22.643Z,8.10
2023-12-30T06:55:51.698Z,8.10
2023-12-30T06:58:19.775Z,8.10
2023-12-30T07:00:46.844Z,8.10
2023-12-30T07:03:15.987Z,8.10
2023-12-30T07:05:43.101Z,8.10
2023-12-30T07:08:13.972Z,8.10
2023-12-30T07:10:48.093Z,8.00
2023-12-30T07:13:17.283Z,8.00
2023-12-30T07:15:44.340Z,8.00
2023-12-30T07:18:12.981Z,8.00
2023-12-30T07:20:41.588Z,8.00
2023-12-30T07:23:11.131Z,8.00
2023-12-30T07:25:40.755Z,8.00
2023-12-30T07:28:10.915Z,8.00
2023-12-30T07:30:40.025Z,8.00
2023-12-30T07:33:10.174Z,8.00
2023-12-30T07:35:37.197Z,8.00
2023-12-30T07:38:07.371Z,8.00
2023-12-30T07:40:37.667Z,8.10
2023-12-30T07:43:06.173Z,8.10
2023-12-30T07:45:35.711Z,8.10
2023-12-30T07:48:06.060Z,8.10
2023-12-30T07:50:39.309Z,8.20
2023-12-30T07:53:09.639Z,8.20
2023-12-30T07:55:37.760Z,8.20
2023-12-30T07:58:06.087Z,8.20
2023-12-30T08:00:35.297Z,8.20
2023-12-30T08:03:05.328Z,8.20
2023-12-30T08:05:35.673Z,8.20
2023-12-30T08:08:06.063Z,8.30
2023-12-30T08:10:35.536Z,8.30
2023-12-30T08:13:06.157Z,8.30
2023-12-30T08:15:35.389Z,8.40
2023-12-30T08:18:03.820Z,8.40
2023-12-30T08:20:34.829Z,8.40
2023-12-30T08:23:04.385Z,8.40
2023-12-30T08:25:31.707Z,8.50
2023-12-30T08:28:01.798Z,8.60
2023-12-30T08:30:32.260Z,8.60
2023-12-30T08:33:05.787Z,8.70
2023-12-30T08:35:39.309Z,8.70
2023-12-30T08:38:06.430Z,8.70
2023-12-30T08:40:36.179Z,8.80
2023-12-30T08:43:12.219Z,8.80
2023-12-30T08:45:40.317Z,8.80
2023-12-30T08:48:08.460Z,8.90
2023-12-30T08:50:37.511Z,8.90
2023-12-30T08:53:05.126Z,9.00
2023-12-30T08:55:35.600Z,9.10
2023-12-30T08:58:02.675Z,9.10
2023-12-30T09:00:29.976Z,9.20
2023-12-30T09:02:59.154Z,9.40
2023-12-30T09:05:28.295Z,9.50
2023-12-30T09:07:57.471Z,9.60
2023-12-30T09:10:24.562Z,9.70
2023-12-30T09:12:54.324Z,9.80
2023-12-30T09:15:21.392Z,9.80
2023-12-30T09:17:49.786Z,9.80
2023-12-30T09:20:20.119Z,9.90
2023-12-30T09:22:47.238Z,9.90
2023-12-30T09:25:15.811Z,10.00
2023-12-30T09:27:42.873Z,10.10
2023-12-30T09:30:10.446Z,10.30
2023-12-30T09:32:37.947Z,10.50
2023-12-30T09:35:07.245Z,10.60
2023-12-30T09:37:40.874Z,10.90
2023-12-30T09:40:14.259Z,10.90
2023-12-30T09:42:46.340Z,10.90
2023-12-30T09:45:16.787Z,10.90
2023-12-30T09:47:47.482Z,11.00
2023-12-30T09:50:16.742Z,11.10
2023-12-30T09:52:46.852Z,11.10
2023-12-30T09:55:17.047Z,11.10
2023-12-30T09:57:46.139Z,11.10
2023-12-30T10:00:16.910Z,11.10
2023-12-30T10:02:46.884Z,11.30
2023-12-30T10:05:17.077Z,11.50
2023-12-30T10:07:44.279Z,11.80
2023-12-30T10:10:14.505Z,12.10
2023-12-30T10:12:41.495Z,12.30
2023-12-30T10:15:08.741Z,12.50
2023-12-30T10:17:36.502Z,12.60
2023-12-30T10:20:07.441Z,12.50
2023-12-30T10:22:38.779Z,12.50
2023-12-30T10:25:09.177Z,12.60
2023-12-30T10:27:37.958Z,13.00
2023-12-30T10:30:07.820Z,13.30
2023-12-30T10:32:36.328Z,13.80
2023-12-30T10:35:06.987Z,14.40
2023-12-30T10:37:36.997Z,14.60
2023-12-30T10:40:09.001Z,15.10
2023-12-30T10:42:36.420Z,15.70
2023-12-30T10:45:06.831Z,15.70
2023-12-30T10:47:39.612Z,15.70
2023-12-30T10:50:11.138Z,15.40
2023-12-30T10:53:13.155Z,15.20
2023-12-30T10:55:49.861Z,15.20
2023-12-30T10:58:21.767Z,15.40
2023-12-30T11:00:58.793Z,15.40
2023-12-30T11:03:26.832Z,15.30
2023-12-30T11:06:03.043Z,15.20
2023-12-30T11:08:30.448Z,15.30
2023-12-30T11:11:04.675Z,15.30
2023-12-30T11:13:44.790Z,15.30
2023-12-30T11:16:19.270Z,14.90
2023-12-30T11:19:00.523Z,14.70
2023-12-30T11:21:48.061Z,14.80
2023-12-30T11:24:19.473Z,15.10
2023-12-30T11:26:49.120Z,15.00
2023-12-30T11:29:20.304Z,15.00
2023-12-30T11:31:51.668Z,14.80
2023-12-30T11:34:20.453Z,14.60
2023-12-30T11:36:53.756Z,14.30
2023-12-30T11:39:39.760Z,14.20
2023-12-30T11:42:10.045Z,14.30
2023-12-30T11:44:37.596Z,14.10
2023-12-30T11:47:07.736Z,14.10
2023-12-30T11:49:35.054Z,14.00
2023-12-30T11:52:06.151Z,13.80
2023-12-30T11:54:36.968Z,13.90
2023-12-30T11:57:11.098Z,14.00
2023-12-30T11:59:42.293Z,13.80
2023-12-30T12:02:10.698Z,13.70
2023-12-30T12:04:39.036Z,13.80
2023-12-30T12:07:08.718Z,13.80
2023-12-30T12:09:41.640Z,13.80
2023-12-30T12:12:09.052Z,13.70
2023-12-30T12:14:41.053Z,13.60
2023-12-30T12:17:08.801Z,13.60
2023-12-30T12:19:39.268Z,13.40
2023-12-30T12:22:07.566Z,13.20
2023-12-30T12:24:44.973Z,13.10
2023-12-30T12:27:20.460Z,13.00
2023-12-30T12:29:52.041Z,12.80
2023-12-30T12:32:28.800Z,12.70
2023-12-30T12:34:56.786Z,12.60
2023-12-30T12:37:26.693Z,12.50
2023-12-30T12:39:54.266Z,12.40
2023-12-30T12:42:30.457Z,12.30
2023-12-30T12:44:59.709Z,12.30
2023-12-30T12:47:26.979Z,12.20
2023-12-30T12:49:54.745Z,12.10
2023-12-30T12:52:24.339Z,12.00
2023-12-30T12:54:52.494Z,12.00
2023-12-30T12:57:22.516Z,12.00
2023-12-30T12:59:50.864Z,12.00
2023-12-30T13:02:21.129Z,12.00
2023-12-30T13:04:49.178Z,12.00
2023-12-30T13:07:19.467Z,12.00
2023-12-30T13:09:58.222Z,12.00
2023-12-30T13:12:27.907Z,12.00
2023-12-30T13:15:00.197Z,12.00
2023-12-30T13:17:27.404Z,12.00
2023-12-30T13:19:57.704Z,12.00
2023-12-30T13:22:24.813Z,11.90
2023-12-30T13:25:11.106Z,11.90
2023-12-30T13:27:38.369Z,11.80
2023-12-30T13:30:06.781Z,11.80
2023-12-30T13:32:35.134Z,11.80
2023-12-30T13:35:07.108Z,11.80
2023-12-30T13:37:40.589Z,11.80
2023-12-30T13:40:13.451Z,11.80
2023-12-30T13:42:42.325Z,11.80
2023-12-30T13:45:11.435Z,11.80
2023-12-30T13:47:46.449Z,11.70
2023-12-30T13:50:31.237Z,11.70
2023-12-30T13:53:03.041Z,11.70
2023-12-30T13:55:37.642Z,11.60
2023-12-30T13:58:08.625Z,11.60
2023-12-30T14:00:41.416Z,11.50
2023-12-30T14:03:09.018Z,11.50
2023-12-30T14:05:46.177Z,11.40
2023-12-30T14:08:43.240Z,11.40
2023-12-30T14:11:42.062Z,11.40
2023-12-30T14:14:13.209Z,11.40
2023-12-30T14:16:45.705Z,11.30
2023-12-30T14:19:17.623Z,11.30
2023-12-30T14:21:47.196Z,11.20
2023-12-30T14:24:20.017Z,11.20
2023-12-30T14:26:50.450Z,11.20
2023-12-30T14:29:17.591Z,11.30
2023-12-30T14:31:44.601Z,11.30
2023-12-30T14:34:12.749Z,11.30
2023-12-30T14:36:42.990Z,11.30
2023-12-30T14:39:16.615Z,11.30
2023-12-30T14:41:49.784Z,11.30
2023-12-30T14:44:16.987Z,11.30
2023-12-30T14:46:46.346Z,11.30
2023-12-30T14:49:15.928Z,11.30
2023-12-30T14:51:44.062Z,11.30
2023-12-30T14:54:14.179Z,11.30
2023-12-30T14:56:44.504Z,11.40
2023-12-30T14:59:15.466Z,11.40
2023-12-30T15:01:43.784Z,11.40
2023-12-30T15:04:14.307Z,11.40
2023-12-30T15:06:44.536Z,11.40
2023-12-30T15:09:16.087Z,11.40
2023-12-30T15:11:43.671Z,11.30
2023-12-30T15:14:13.842Z,11.20
2023-12-30T15:16:41.891Z,11.20
2023-12-30T15:19:12.081Z,11.20
2023-12-30T15:21:39.318Z,11.20
2023-12-30T15:24:13.922Z,11.20
2023-12-30T15:26:48.146Z,11.10
2023-12-30T15:29:19.794Z,11.10
2023-12-30T15:31:50.466Z,11.10
2023-12-30T15:34:19.159Z,11.10
2023-12-30T15:36:46.449Z,11.00
2023-12-30T15:39:16.746Z,11.00
2023-12-30T15:41:46.321Z,11.00
2023-12-30T15:44:16.700Z,10.90
2023-12-30T15:46:47.001Z,10.90
2023-12-30T15:49:17.435Z,10.90
2023-12-30T15:51:46.693Z,10.90
2023-12-30T15:54:16.850Z,10.90
2023-12-30T15:56:48.494Z,11.00
2023-12-30T15:59:17.146Z,11.00
2023-12-30T16:01:44.347Z,11.00
2023-12-30T16:04:11.794Z,10.90
2023-12-30T16:06:42.247Z,10.90
2023-12-30T16:09:13.305Z,10.80
2023-12-30T16:11:40.850Z,10.90
2023-12-30T16:14:11.548Z,10.80
2023-12-30T16:16:45.828Z,10.90
2023-12-30T16:19:22.773Z,10.80
2023-12-30T16:21:53.172Z,10.90
2023-12-30T16:24:21.225Z,10.90
2023-12-30T16:26:49.297Z,10.90
2023-12-30T16:29:18.436Z,10.90
2023-12-30T16:31:45.418Z,10.90
2023-12-30T16:34:14.918Z,10.90
2023-12-30T16:36:44.182Z,10.90
2023-12-30T16:39:12.205Z,10.90
2023-12-30T16:41:42.604Z,10.90
2023-12-30T16:44:12.821Z,10.90
2023-12-30T16:46:47.081Z,11.00
2023-12-30T16:49:16.693Z,11.00
2023-12-30T16:51:47.189Z,11.00
2023-12-30T16:54:15.104Z,11.00
2023-12-30T16:56:44.555Z,11.00
2023-12-30T16:59:12.097Z,11.00
2023-12-30T17:01:39.957Z,11.00
2023-12-30T17:04:08.911Z,11.00
2023-12-30T17:06:36.732Z,11.00
2023-12-30T17:09:06.578Z,11.10
2023-12-30T17:11:35.070Z,11.10
2023-12-30T17:14:05.224Z,11.10
2023-12-30T17:16:35.366Z,11.00
2023-12-30T17:19:04.556Z,11.00
2023-12-30T17:21:32.691Z,11.10
2023-12-30T17:24:03.724Z,11.10
2023-12-30T17:26:30.849Z,11.10
2023-12-30T17:28:57.960Z,11.10
2023-12-30T17:31:26.287Z,11.10
2023-12-30T17:33:57.235Z,11.10
2023-12-30T17:36:26.328Z,11.10
2023-12-30T17:38:57.634Z,11.10
2023-12-30T17:41:25.753Z,11.10
2023-12-30T17:43:55.842Z,11.10
2023-12-30T17:46:23.933Z,11.00
2023-12-30T17:48:53.094Z,11.00
2023-12-30T17:51:20.368Z,11.00
2023-12-30T17:53:50.304Z,11.00
2023-12-30T17:56:20.556Z,10.90
2023-12-30T17:58:51.504Z,10.90
2023-12-30T18:01:21.800Z,10.90
2023-12-30T18:03:48.907Z,10.90
2023-12-30T18:06:17.021Z,10.90
2023-12-30T18:08:50.118Z,11.00
2023-12-30T18:11:19.793Z,10.90
2023-12-30T18:13:49.966Z,10.90
2023-12-30T18:16:20.070Z,10.90
2023-12-30T18:18:50.394Z,10.90
2023-12-30T18:21:22.237Z,10.90
2023-12-30T18:23:50.314Z,10.90
2023-12-30T18:26:17.347Z,10.80
2023-12-30T18:28:47.573Z,10.80
2023-12-30T18:31:17.842Z,10.80
2023-12-30T18:33:45.101Z,10.80
2023-12-30T18:36:13.370Z,10.80
2023-12-30T18:38:41.037Z,10.80
2023-12-30T18:41:11.184Z,10.80
2023-12-30T18:43:44.525Z,10.80
2023-12-30T18:46:14.657Z,10.80
2023-12-30T18:48:41.849Z,10.70
2023-12-30T18:51:10.060Z,10.80
2023-12-30T18:53:40.134Z,10.80
2023-12-30T18:56:13.353Z,10.80
2023-12-30T18:58:41.453Z,10.80
2023-12-30T19:01:12.597Z,10.80
2023-12-30T19:03:42.732Z,10.80
2023-12-30T19:06:12.937Z,10.80
2023-12-30T19:08:42.307Z,10.80
2023-12-30T19:11:10.583Z,10.80
2023-12-30T19:13:40.784Z,10.90
2023-12-30T19:16:09.130Z,10.90
2023-12-30T19:18:38.472Z,10.90
2023-12-30T19:21:05.708Z,10.90
2023-12-30T19:23:36.021Z,10.90
2023-12-30T19:26:03.762Z,10.90
2023-12-30T19:28:31.883Z,10.90
2023-12-30T19:31:02.077Z,10.90
2023-12-30T19:33:32.004Z,10.90
2023-12-30T19:36:01.578Z,10.90
2023-12-30T19:38:30.985Z,10.90
2023-12-30T19:41:04.247Z,10.90
2023-12-30T19:43:35.515Z,10.90
2023-12-30T19:46:07.299Z,10.90
2023-12-30T19:48:36.590Z,10.90
2023-12-30T19:51:06.460Z,10.90
2023-12-30T19:53:36.610Z,10.90
2023-12-30T19:56:05.027Z,10.90
2023-12-30T19:58:35.311Z,10.80
2023-12-30T20:01:05.532Z,10.80
2023-12-30T20:03:34.834Z,10.80
2023-12-30T20:06:07.513Z,10.80
2023-12-30T20:08:35.450Z,10.80
2023-12-30T20:11:05.514Z,10.80
2023-12-30T20:13:34.589Z,10.80
2023-12-30T20:16:04.978Z,10.80
2023-12-30T20:18:34.207Z,10.80
2023-12-30T20:21:05.431Z,10.90
2023-12-30T20:23:35.827Z,10.90
2023-12-30T20:26:05.017Z,10.80
2023-12-30T20:28:32.136Z,10.90
2023-12-30T20:31:02.181Z,10.90
2023-12-30T20:33:32.516Z,10.90
2023-12-30T20:36:01.963Z,10.90
2023-12-30T20:38:30.998Z,10.90
2023-12-30T20:41:01.523Z,10.90
2023-12-30T20:43:28.663Z,10.90
2023-12-30T20:45:57.779Z,10.90
2023-12-30T20:48:27.845Z,10.90
2023-12-30T20:50:56.335Z,10.90
2023-12-30T20:53:26.769Z,11.00
2023-12-30T20:55:55.287Z,10.90
2023-12-30T20:58:23.764Z,10.90
2023-12-30T21:00:54.013Z,11.00
2023-12-30T21:03:22.462Z,10.90
2023-12-30T21:05:52.972Z,10.90
2023-12-30T21:08:21.565Z,10.90
2023-12-30T21:10:54.766Z,10.90
2023-12-30T21:13:21.978Z,10.90
2023-12-30T21:15:50.060Z,10.90
2023-12-30T21:18:17.122Z,10.90
2023-12-30T21:20:46.358Z,10.90
2023-12-30T21:23:16.515Z,10.90
2023-12-30T21:25:50.251Z,11.00
2023-12-30T21:28:22.894Z,11.00
2023-12-30T21:30:50.338Z,11.00
2023-12-30T21:33:20.650Z,11.10
2023-12-30T21:35:48.714Z,11.10
2023-12-30T21:38:18.800Z,11.20
2023-12-30T21:40:49.696Z,11.20
2023-12-30T21:43:19.834Z,11.20
2023-12-30T21:45:49.448Z,11.20
2023-12-30T21:48:19.663Z,11.20
2023-12-30T21:50:52.912Z,11.20
2023-12-30T21:53:23.633Z,11.20
2023-12-30T21:55:56.884Z,11.20
2023-12-30T21:58:24.120Z,11.30
2023-12-30T22:00:54.389Z,11.20
2023-12-30T22:03:21.637Z,11.20
2023-12-30T22:05:49.787Z,11.20
2023-12-30T22:08:20.347Z,11.30
2023-12-30T22:10:50.529Z,11.30
2023-12-30T22:13:18.660Z,11.30
2023-12-30T22:15:45.787Z,11.30
2023-12-30T22:18:12.869Z,11.30
2023-12-30T22:20:40.017Z,11.20
2023-12-30T22:23:12.615Z,11.20
2023-12-30T22:25:42.774Z,11.20
2023-12-30T22:28:13.375Z,11.20
2023-12-30T22:30:41.438Z,11.20
2023-12-30T22:33:10.141Z,11.10
2023-12-30T22:35:37.591Z,11.10
2023-12-30T22:38:04.989Z,11.00
2023-12-30T22:40:34.042Z,11.00
2023-12-30T22:43:01.366Z,11.00
2023-12-30T22:45:29.518Z,11.00
2023-12-30T22:47:57.916Z,11.00
2023-12-30T22:50:25.146Z,11.00
2023-12-30T22:52:55.271Z,11.00
2023-12-30T22:55:22.513Z,10.90
2023-12-30T22:57:51.872Z,10.90
2023-12-30T23:00:22.589Z,10.90
2023-12-30T23:02:53.628Z,10.90
2023-12-30T23:05:23.791Z,10.90
2023-12-30T23:07:54.042Z,10.90
2023-12-30T23:10:22.441Z,10.90
2023-12-30T23:12:49.553Z,10.90
2023-12-30T23:15:19.647Z,10.90
2023-12-30T23:17:47.263Z,10.90
2023-12-30T23:20:22.599Z,10.90
2023-12-30T23:22:50.694Z,10.90
2023-12-30T23:25:20.777Z,10.90
2023-12-30T23:27:50.588Z,10.80
2023-12-30T23:30:18.872Z,10.80
2023-12-30T23:32:51.130Z,10.80
2023-12-30T23:35:24.349Z,10.70
2023-12-30T23:37:54.510Z,10.70
2023-12-30T23:40:21.701Z,10.70
2023-12-30T23:42:48.729Z,10.70
2023-12-30T23:45:19.007Z,10.60
2023-12-30T23:47:46.101Z,10.60
2023-12-30T23:50:15.249Z,10.60
2023-12-30T23:52:46.206Z,10.50
2023-12-30T23:55:16.511Z,10.50
2023-12-30T23:57:43.514Z,10.50
